createdAt,value
2023-04-11T00:01:54.416Z,6.53
2023-04-11T00:04:22.970Z,6.82
2023-04-11T00:06:50.753Z,6.85
2023-04-11T00:09:18.391Z,7.38
2023-04-11T00:11:46.251Z,7.35
2023-04-11T00:14:17.567Z,6.88
2023-04-11T00:16:45.611Z,7.10
2023-04-11T00:19:13.283Z,7.50
2023-04-11T00:21:41.066Z,6.82
2023-04-11T00:24:08.861Z,7.25
2023-04-11T00:26:36.610Z,6.38
2023-04-11T00:29:07.484Z,7.00
2023-04-11T00:31:36.610Z,7.13
2023-04-11T00:34:16.454Z,6.90
2023-04-11T00:36:48.800Z,7.30
2023-04-11T00:39:29.330Z,7.30
2023-04-11T00:42:39.481Z,7.20
2023-04-11T00:44:59.535Z,7.50
2023-04-11T00:47:27.757Z,7.20
2023-04-11T00:50:07.787Z,7.00
2023-04-11T00:52:57.996Z,6.78
2023-04-11T00:55:27.183Z,7.47
2023-04-11T00:57:55.515Z,7.32
2023-04-11T01:00:24.019Z,7.20
2023-04-11T01:02:51.824Z,6.53
2023-04-11T01:05:20.075Z,7.07
2023-04-11T01:07:51.612Z,7.05
2023-04-11T01:10:19.485Z,6.78
2023-04-11T01:12:47.317Z,7.32
2023-04-11T01:15:15.544Z,6.95
2023-04-11T01:17:43.480Z,7.50
2023-04-11T01:20:14.665Z,7.00
2023-04-11T01:22:43.259Z,6.95
2023-04-11T01:25:12.412Z,6.60
2023-04-11T01:27:42.408Z,7.05
2023-04-11T01:30:12.380Z,7.53
2023-04-11T01:32:40.509Z,7.25
2023-04-11T01:35:11.143Z,6.88
2023-04-11T01:37:39.279Z,6.93
2023-04-11T01:40:07.994Z,7.38
2023-04-11T01:42:37.789Z,6.70
2023-04-11T01:45:07.574Z,7.72
2023-04-11T01:47:36.133Z,7.38
2023-04-11T01:50:04.372Z,7.18
2023-04-11T01:52:32.092Z,6.88
2023-04-11T01:54:59.810Z,7.30
2023-04-11T01:57:27.491Z,7.00
2023-04-11T01:59:55.264Z,6.47
2023-04-11T02:02:23.218Z,6.65
2023-04-11T02:04:51.105Z,6.70
2023-04-11T02:07:20.912Z,7.05
2023-04-11T02:09:48.565Z,6.82
2023-04-11T02:12:16.424Z,7.20
2023-04-11T02:14:45.847Z,6.25
2023-04-11T02:17:14.211Z,6.47
2023-04-11T02:19:42.049Z,6.55
2023-04-11T02:22:09.697Z,7.05
2023-04-11T02:24:38.155Z,6.18
2023-04-11T02:27:06.139Z,6.28
2023-04-11T02:29:34.216Z,6.85
2023-04-11T02:32:02.126Z,6.53
2023-04-11T02:34:29.971Z,5.55
2023-04-11T02:37:00.216Z,6.07
2023-04-11T02:39:28.476Z,5.22
2023-04-11T02:41:57.377Z,4.93
2023-04-11T02:44:26.343Z,4.53
2023-04-11T02:46:56.034Z,5.03
2023-04-11T02:49:24.019Z,5.15
2023-04-11T02:51:51.639Z,4.90
2023-04-11T02:54:19.274Z,5.78
2023-04-11T02:56:47.538Z,5.40
2023-04-11T02:59:15.388Z,6.05
2023-04-11T03:01:45.389Z,5.95
2023-04-11T03:04:13.414Z,5.97
2023-04-11T03:07:01.340Z,6.60
2023-04-11T03:09:29.574Z,6.50
2023-04-11T03:11:57.469Z,7.13
2023-04-11T03:14:25.277Z,7.43
2023-04-11T03:16:52.893Z,7.90
2023-04-11T03:19:21.055Z,7.18
2023-04-11T03:21:48.804Z,8.00
2023-04-11T03:24:17.804Z,7.30
2023-04-11T03:26:45.662Z,7.60
2023-04-11T03:29:16.568Z,8.23
2023-04-11T03:31:58.299Z,8.30
2023-04-11T03:34:26.794Z,7.88
2023-04-11T03:36:55.868Z,8.53
2023-04-11T03:39:24.411Z,8.70
2023-04-11T03:41:52.697Z,8.87
2023-04-11T03:44:20.387Z,8.73
2023-04-11T03:46:48.923Z,8.57
2023-04-11T03:49:17.125Z,10.27
2023-04-11T03:51:49.673Z,9.10
2023-04-11T03:54:17.872Z,8.32
2023-04-11T03:56:45.672Z,8.35
2023-04-11T03:59:19.931Z,10.65
2023-04-11T04:01:59.150Z,8.93
2023-04-11T04:04:27.720Z,9.10
2023-04-11T04:07:10.067Z,8.60
2023-04-11T04:09:42.059Z,9.27
2023-04-11T04:12:10.808Z,9.43
2023-04-11T04:14:52.436Z,8.63
2023-04-11T04:17:21.118Z,9.40
2023-04-11T04:19:48.760Z,8.97
2023-04-11T04:22:17.722Z,9.45
2023-04-11T04:24:51.787Z,8.20
2023-04-11T04:27:25.011Z,9.37
2023-04-11T04:30:03.059Z,8.43
2023-04-11T04:32:46.032Z,9.17
2023-04-11T04:35:16.486Z,9.43
2023-04-11T04:37:47.078Z,9.07
2023-04-11T04:40:41.940Z,8.60
2023-04-11T04:43:18.849Z,8.73
2023-04-11T04:45:55.618Z,9.13
2023-04-11T04:48:33.289Z,8.97
2023-04-11T04:51:01.528Z,9.03
2023-04-11T04:53:29.483Z,8.67
2023-04-11T04:56:00.179Z,8.90
2023-04-11T04:58:30.086Z,9.77
2023-04-11T05:01:02.582Z,8.73
2023-04-11T05:03:35.508Z,9.20
2023-04-11T05:06:06.481Z,9.43
2023-04-11T05:08:34.796Z,8.23
2023-04-11T05:11:04.834Z,9.23
2023-04-11T05:13:34.589Z,8.93
2023-04-11T05:16:04.327Z,8.07
2023-04-11T05:18:32.271Z,9.27
2023-04-11T05:21:01.660Z,9.60
2023-04-11T05:23:35.473Z,9.18
2023-04-11T05:26:04.228Z,9.00
2023-04-11T05:28:34.754Z,8.33
2023-04-11T05:31:07.174Z,8.23
2023-04-11T05:33:34.867Z,9.57
2023-04-11T05:36:02.538Z,9.83
2023-04-11T05:38:33.285Z,9.33
2023-04-11T05:41:01.091Z,9.48
2023-04-11T05:43:28.656Z,9.30
2023-04-11T05:45:57.543Z,9.50
2023-04-11T05:48:25.334Z,9.33
2023-04-11T05:50:53.257Z,8.87
2023-04-11T05:53:21.280Z,8.90
2023-04-11T05:55:48.981Z,9.10
2023-04-11T05:58:16.853Z,8.87
2023-04-11T06:00:46.008Z,8.47
2023-04-11T06:03:14.195Z,8.90
2023-04-11T06:05:41.920Z,8.30
2023-04-11T06:08:10.438Z,8.23
2023-04-11T06:10:38.143Z,8.23
2023-04-11T06:13:06.161Z,8.57
2023-04-11T06:15:36.930Z,8.03
2023-04-11T06:18:04.676Z,8.10
2023-04-11T06:20:32.330Z,7.33
2023-04-11T06:23:01.405Z,7.87
2023-04-11T06:25:29.156Z,8.00
2023-04-11T06:27:56.938Z,8.00
2023-04-11T06:30:24.668Z,8.13
2023-04-11T06:32:52.517Z,7.30
2023-04-11T06:35:24.720Z,6.50
2023-04-11T06:37:52.493Z,6.93
2023-04-11T06:40:20.492Z,6.72
2023-04-11T06:42:48.491Z,6.38
2023-04-11T06:45:16.367Z,6.80
2023-04-11T06:47:44.164Z,6.43
2023-04-11T06:50:12.081Z,6.75
2023-04-11T06:52:39.970Z,7.17
2023-04-11T06:55:08.355Z,7.03
2023-04-11T06:57:38.350Z,6.38
2023-04-11T07:00:07.940Z,5.57
2023-04-11T07:02:35.891Z,6.07
2023-04-11T07:05:03.973Z,5.32
2023-04-11T07:07:32.080Z,5.53
2023-04-11T07:09:59.702Z,3.97
2023-04-11T07:12:27.468Z,4.38
2023-04-11T07:14:55.241Z,2.70
2023-04-11T07:17:23.019Z,3.70
2023-04-11T07:19:50.866Z,3.40
2023-04-11T07:22:19.604Z,3.20
2023-04-11T07:24:57.540Z,2.83
2023-04-11T07:27:26.610Z,2.87
2023-04-11T07:29:54.243Z,2.63
2023-04-11T07:32:21.985Z,3.00
2023-04-11T07:34:49.640Z,2.83
2023-04-11T07:37:18.126Z,2.60
2023-04-11T07:39:45.773Z,2.03
2023-04-11T07:42:13.392Z,1.97
2023-04-11T07:44:41.080Z,2.37
2023-04-11T07:47:08.897Z,1.77
2023-04-11T07:49:36.767Z,2.57
2023-04-11T07:52:04.472Z,2.43
2023-04-11T07:54:33.313Z,2.20
2023-04-11T07:57:02.080Z,2.57
2023-04-11T07:59:29.718Z,1.93
2023-04-11T08:02:01.586Z,2.00
2023-04-11T08:04:36.866Z,1.83
2023-04-11T08:07:04.883Z,2.38
2023-04-11T08:09:35.489Z,2.03
2023-04-11T08:12:04.528Z,2.97
2023-04-11T08:14:32.460Z,1.70
2023-04-11T08:17:02.792Z,1.05
2023-04-11T08:19:33.361Z,1.40
2023-04-11T08:22:01.229Z,1.42
2023-04-11T08:24:29.016Z,1.20
2023-04-11T08:26:56.698Z,2.97
2023-04-11T08:29:24.496Z,4.83
2023-04-11T08:31:52.158Z,3.55
2023-04-11T08:34:27.197Z,7.50
2023-04-11T08:36:54.926Z,6.33
2023-04-11T08:39:26.390Z,10.65
2023-04-11T08:41:54.334Z,4.10
2023-04-11T08:44:22.462Z,2.93
2023-04-11T08:46:53.099Z,1.93
2023-04-11T08:49:26.560Z,1.90
2023-04-11T08:51:57.196Z,1.80
2023-04-11T08:54:25.106Z,1.70
2023-04-11T08:56:55.625Z,1.33
2023-04-11T08:59:23.459Z,1.50
2023-04-11T09:01:51.439Z,1.75
2023-04-11T09:04:19.451Z,1.55
2023-04-11T09:07:00.539Z,1.55
2023-04-11T09:09:31.042Z,1.00
2023-04-11T09:11:59.331Z,1.20
2023-04-11T09:14:27.382Z,1.50
2023-04-11T09:17:02.375Z,1.50
2023-04-11T09:19:32.666Z,1.27
2023-04-11T09:22:09.558Z,2.25
2023-04-11T09:25:06.947Z,2.00
2023-04-11T09:27:34.762Z,2.13
2023-04-11T09:30:03.913Z,1.70
2023-04-11T09:32:35.248Z,1.40
2023-04-11T09:35:10.419Z,1.38
2023-04-11T09:37:49.161Z,1.17
2023-04-11T09:40:20.305Z,0.80
2023-04-11T09:42:49.670Z,0.80
2023-04-11T09:45:24.377Z,2.15
2023-04-11T09:47:55.833Z,1.30
2023-04-11T09:50:28.036Z,1.33
2023-04-11T09:52:58.831Z,1.25
2023-04-11T09:55:27.309Z,1.48
2023-04-11T09:57:55.288Z,1.52
2023-04-11T10:00:29.234Z,1.80
2023-04-11T10:02:57.295Z,1.27
2023-04-11T10:05:29.723Z,0.90
2023-04-11T10:08:22.521Z,0.80
2023-04-11T10:10:53.052Z,1.10
2023-04-11T10:13:45.406Z,0.90
2023-04-11T10:16:24.076Z,1.03
2023-04-11T10:18:55.643Z,1.60
2023-04-11T10:21:30.321Z,3.93
2023-04-11T10:24:26.314Z,0.90
2023-04-11T10:27:01.003Z,0.98
2023-04-11T10:29:33.094Z,6.35
2023-04-11T10:32:16.049Z,8.15
2023-04-11T10:34:49.674Z,5.13
2023-04-11T10:37:19.198Z,2.20
2023-04-11T10:40:01.806Z,2.00
2023-04-11T10:42:33.698Z,2.42
2023-04-11T10:45:30.432Z,1.55
2023-04-11T10:48:03.878Z,1.38
2023-04-11T10:50:32.192Z,1.30
2023-04-11T10:53:05.022Z,1.33
2023-04-11T10:56:02.280Z,1.77
2023-04-11T10:58:39.623Z,1.77
2023-04-11T11:01:07.433Z,2.20
2023-04-11T11:03:35.904Z,1.60
2023-04-11T11:06:07.279Z,1.42
2023-04-11T11:08:41.763Z,1.95
2023-04-11T11:11:11.374Z,1.88
2023-04-11T11:13:44.805Z,2.22
2023-04-11T11:16:24.821Z,1.20
2023-04-11T11:18:54.770Z,1.08
2023-04-11T11:21:28.158Z,1.20
2023-04-11T11:24:02.380Z,1.60
2023-04-11T11:26:40.256Z,1.40
2023-04-11T11:29:10.024Z,1.20
2023-04-11T11:31:45.642Z,1.42
2023-04-11T11:34:23.430Z,1.38
2023-04-11T11:36:52.627Z,1.38
2023-04-11T11:39:21.957Z,0.90
2023-04-11T11:41:51.302Z,1.20
2023-04-11T11:44:33.855Z,1.40
2023-04-11T11:47:14.950Z,1.00
2023-04-11T11:49:51.800Z,1.42
2023-04-11T11:52:39.680Z,1.08
2023-04-11T11:55:19.534Z,0.98
2023-04-11T11:57:49.772Z,0.88
2023-04-11T12:00:29.558Z,1.20
2023-04-11T12:02:59.893Z,1.00
2023-04-11T12:05:30.959Z,1.50
2023-04-11T12:08:04.270Z,0.88
2023-04-11T12:10:49.813Z,0.60
2023-04-11T12:13:23.533Z,0.60
2023-04-11T12:15:54.828Z,1.20
2023-04-11T12:18:25.152Z,1.70
2023-04-11T12:20:53.746Z,1.23
2023-04-11T12:23:22.650Z,1.30
2023-04-11T12:25:50.552Z,1.40
2023-04-11T12:28:18.277Z,1.70
2023-04-11T12:30:45.988Z,1.80
2023-04-11T12:33:13.588Z,2.50
2023-04-11T12:35:41.317Z,1.57
2023-04-11T12:38:09.821Z,1.50
2023-04-11T12:40:38.600Z,1.47
2023-04-11T12:43:06.233Z,1.53
2023-04-11T12:45:33.974Z,1.40
2023-04-11T12:48:01.775Z,1.80
2023-04-11T12:50:29.614Z,1.60
2023-04-11T12:52:57.222Z,1.73
2023-04-11T12:55:25.066Z,1.93
2023-04-11T12:57:52.682Z,2.47
2023-04-11T13:00:20.705Z,2.03
2023-04-11T13:02:48.693Z,2.80
2023-04-11T13:05:17.357Z,2.00
2023-04-11T13:07:46.143Z,1.30
2023-04-11T13:10:16.096Z,1.00
2023-04-11T13:12:45.422Z,0.90
2023-04-11T13:15:17.563Z,1.20
2023-04-11T13:17:45.535Z,1.40
2023-04-11T13:20:13.542Z,1.45
2023-04-11T13:22:43.479Z,1.17
2023-04-11T13:25:12.495Z,1.00
2023-04-11T13:27:42.048Z,0.70
2023-04-11T13:30:10.587Z,1.30
2023-04-11T13:32:38.591Z,1.53
2023-04-11T13:35:07.144Z,0.90
2023-04-11T13:37:34.801Z,1.33
2023-04-11T13:40:06.530Z,1.40
2023-04-11T13:42:34.610Z,1.20
2023-04-11T13:45:02.389Z,1.27
2023-04-11T13:47:30.382Z,1.30
2023-04-11T13:49:57.963Z,1.10
2023-04-11T13:52:25.603Z,1.00
2023-04-11T13:54:53.259Z,1.40
2023-04-11T13:57:21.182Z,1.20
2023-04-11T13:59:48.930Z,1.23
2023-04-11T14:02:16.779Z,1.00
2023-04-11T14:04:44.409Z,1.25
2023-04-11T14:07:12.479Z,1.33
2023-04-11T14:09:40.529Z,1.10
2023-04-11T14:12:08.236Z,1.20
2023-04-11T14:14:36.088Z,1.02
2023-04-11T14:17:03.924Z,1.10
2023-04-11T14:19:31.559Z,1.75
2023-04-11T14:22:02.414Z,1.17
2023-04-11T14:24:30.895Z,1.25
2023-04-11T14:26:58.875Z,1.45
2023-04-11T14:29:27.188Z,1.08
2023-04-11T14:31:56.620Z,1.58
2023-04-11T14:34:24.288Z,1.13
2023-04-11T14:36:52.361Z,0.90
2023-04-11T14:39:21.283Z,1.00
2023-04-11T14:41:49.000Z,1.05
2023-04-11T14:44:16.884Z,1.00
2023-04-11T14:46:44.629Z,0.93
2023-04-11T14:49:12.504Z,0.75
2023-04-11T14:51:40.154Z,0.65
2023-04-11T14:54:07.815Z,1.00
2023-04-11T14:56:36.469Z,1.00
2023-04-11T14:59:04.241Z,1.40
2023-04-11T15:01:31.993Z,0.90
2023-04-11T15:04:00.261Z,1.17
2023-04-11T15:06:28.164Z,1.10
2023-04-11T15:08:55.987Z,1.00
2023-04-11T15:11:23.571Z,0.73
2023-04-11T15:13:52.863Z,0.77
2023-04-11T15:16:23.361Z,1.30
2023-04-11T15:18:51.082Z,2.70
2023-04-11T15:21:21.360Z,1.20
2023-04-11T15:23:49.085Z,1.40
2023-04-11T15:26:16.780Z,2.37
2023-04-11T15:28:45.815Z,1.40
2023-04-11T15:31:14.927Z,1.40
2023-04-11T15:33:46.337Z,1.00
2023-04-11T15:36:14.090Z,1.23
2023-04-11T15:38:41.639Z,1.10
2023-04-11T15:41:09.313Z,0.80
2023-04-11T15:43:37.532Z,0.63
2023-04-11T15:46:06.660Z,0.82
2023-04-11T15:48:34.415Z,0.80
2023-04-11T15:51:09.926Z,0.60
2023-04-11T15:53:37.666Z,0.50
2023-04-11T15:56:07.289Z,0.60
2023-04-11T15:58:35.275Z,0.70
2023-04-11T16:01:03.011Z,0.57
2023-04-11T16:03:33.986Z,0.70
2023-04-11T16:06:02.785Z,1.05
2023-04-11T16:08:30.467Z,1.00
2023-04-11T16:10:58.202Z,0.80
2023-04-11T16:13:25.832Z,0.57
2023-04-11T16:15:53.608Z,1.00
2023-04-11T16:18:21.271Z,0.68
2023-04-11T16:20:48.903Z,1.00
2023-04-11T16:23:16.605Z,0.80
2023-04-11T16:25:44.981Z,1.20
2023-04-11T16:28:15.001Z,1.00
2023-04-11T16:30:43.450Z,1.13
2023-04-11T16:33:11.065Z,0.75
2023-04-11T16:35:38.806Z,1.00
2023-04-11T16:38:06.567Z,1.15
2023-04-11T16:40:34.970Z,0.90
2023-04-11T16:43:02.684Z,0.77
2023-04-11T16:45:30.449Z,0.70
2023-04-11T16:47:58.158Z,1.02
2023-04-11T16:50:26.133Z,0.90
2023-04-11T16:52:54.055Z,1.20
2023-04-11T16:55:22.635Z,0.93
2023-04-11T16:57:50.460Z,1.00
2023-04-11T17:00:20.343Z,0.70
2023-04-11T17:02:48.070Z,0.67
2023-04-11T17:05:18.835Z,1.00
2023-04-11T17:07:46.908Z,0.97
2023-04-11T17:10:14.638Z,1.20
2023-04-11T17:12:42.318Z,0.67
2023-04-11T17:15:11.042Z,0.40
2023-04-11T17:17:38.684Z,0.50
2023-04-11T17:20:09.698Z,0.70
2023-04-11T17:22:41.192Z,0.70
2023-04-11T17:25:10.046Z,0.80
2023-04-11T17:27:37.860Z,0.70
2023-04-11T17:30:08.118Z,0.67
2023-04-11T17:32:39.288Z,0.70
2023-04-11T17:35:07.384Z,0.90
2023-04-11T17:37:35.969Z,0.80
2023-04-11T17:40:10.606Z,1.17
2023-04-11T17:42:38.587Z,1.10
2023-04-11T17:45:17.792Z,0.80
2023-04-11T17:47:47.628Z,1.07
2023-04-11T17:50:16.903Z,0.67
2023-04-11T17:52:47.175Z,0.77
2023-04-11T17:55:18.956Z,1.00
2023-04-11T17:57:50.332Z,0.60
2023-04-11T18:00:26.037Z,0.70
2023-04-11T18:03:00.039Z,0.97
2023-04-11T18:05:33.525Z,0.90
2023-04-11T18:08:03.032Z,1.53
2023-04-11T18:10:31.323Z,0.90
2023-04-11T18:12:59.226Z,0.83
2023-04-11T18:15:28.002Z,1.20
2023-04-11T18:17:56.020Z,0.70
2023-04-11T18:20:23.935Z,4.07
2023-04-11T18:22:55.893Z,1.00
2023-04-11T18:25:23.859Z,1.00
2023-04-11T18:27:51.475Z,1.27
2023-04-11T18:30:19.119Z,1.10
2023-04-11T18:32:49.667Z,1.90
2023-04-11T18:35:18.793Z,1.33
2023-04-11T18:37:51.976Z,1.00
2023-04-11T18:40:21.131Z,1.10
2023-04-11T18:42:52.004Z,1.10
2023-04-11T18:45:21.893Z,1.50
2023-04-11T18:47:50.139Z,1.50
2023-04-11T18:50:22.564Z,1.30
2023-04-11T18:53:02.934Z,1.90
2023-04-11T18:55:34.221Z,4.07
2023-04-11T18:58:16.590Z,4.23
2023-04-11T19:00:48.789Z,3.10
2023-04-11T19:03:16.668Z,1.90
2023-04-11T19:05:45.362Z,1.60
2023-04-11T19:08:13.380Z,2.03
2023-04-11T19:10:41.111Z,1.13
2023-04-11T19:13:08.845Z,1.20
2023-04-11T19:15:36.919Z,1.00
2023-04-11T19:18:06.427Z,1.20
2023-04-11T19:20:34.175Z,1.10
2023-04-11T19:23:02.003Z,1.07
2023-04-11T19:25:29.858Z,1.00
2023-04-11T19:27:57.547Z,1.10
2023-04-11T19:30:25.267Z,1.30
2023-04-11T19:32:52.871Z,1.30
2023-04-11T19:35:24.185Z,1.23
2023-04-11T19:37:52.212Z,1.13
2023-04-11T19:40:23.290Z,1.03
2023-04-11T19:42:51.694Z,1.30
2023-04-11T19:45:19.683Z,1.10
2023-04-11T19:47:47.933Z,1.10
2023-04-11T19:50:15.722Z,1.73
2023-04-11T19:52:43.846Z,1.50
2023-04-11T19:55:12.370Z,1.50
2023-04-11T19:57:41.142Z,1.67
2023-04-11T20:00:14.292Z,1.70
2023-04-11T20:02:45.116Z,1.90
2023-04-11T20:05:18.577Z,1.97
2023-04-11T20:07:47.155Z,1.93
2023-04-11T20:10:16.126Z,2.53
2023-04-11T20:12:43.842Z,2.00
2023-04-11T20:15:11.891Z,1.83
2023-04-11T20:17:39.671Z,2.17
2023-04-11T20:20:08.851Z,2.33
2023-04-11T20:22:38.332Z,2.10
2023-04-11T20:25:07.840Z,2.13
2023-04-11T20:27:35.610Z,2.03
2023-04-11T20:30:09.343Z,1.90
2023-04-11T20:32:37.655Z,2.20
2023-04-11T20:35:05.968Z,2.00
2023-04-11T20:37:35.217Z,2.27
2023-04-11T20:40:06.834Z,1.80
2023-04-11T20:42:35.280Z,1.33
2023-04-11T20:45:28.014Z,1.70
2023-04-11T20:47:57.674Z,1.70
2023-04-11T20:50:25.748Z,1.67
2023-04-11T20:52:53.361Z,1.83
2023-04-11T20:55:21.189Z,1.43
2023-04-11T20:57:48.911Z,1.63
2023-04-11T21:00:18.392Z,1.30
2023-04-11T21:02:50.715Z,1.23
2023-04-11T21:05:22.110Z,1.73
2023-04-11T21:07:50.037Z,1.60
2023-04-11T21:10:20.721Z,1.57
2023-04-11T21:12:51.568Z,2.07
2023-04-11T21:15:21.186Z,1.63
2023-04-11T21:17:50.115Z,1.60
2023-04-11T21:20:18.361Z,1.70
2023-04-11T21:22:54.822Z,1.60
2023-04-11T21:25:24.013Z,1.57
2023-04-11T21:27:51.887Z,1.90
2023-04-11T21:30:19.552Z,1.30
2023-04-11T21:32:47.418Z,2.00
2023-04-11T21:35:15.215Z,1.50
2023-04-11T21:37:42.894Z,2.07
2023-04-11T21:40:12.602Z,1.50
2023-04-11T21:42:40.853Z,1.77
2023-04-11T21:45:09.140Z,2.27
2023-04-11T21:47:36.923Z,1.40
2023-04-11T21:50:05.019Z,1.40
2023-04-11T21:52:32.638Z,1.93
2023-04-11T21:55:00.402Z,1.40
2023-04-11T21:57:28.009Z,1.50
2023-04-11T21:59:55.695Z,1.50
2023-04-11T22:02:23.630Z,1.73
2023-04-11T22:05:05.863Z,2.00
2023-04-11T22:07:46.231Z,1.70
2023-04-11T22:10:14.887Z,1.80
2023-04-11T22:12:45.561Z,2.27
2023-04-11T22:15:14.084Z,1.67
2023-04-11T22:17:42.569Z,1.80
2023-04-11T22:20:11.269Z,2.10
2023-04-11T22:22:38.932Z,2.13
2023-04-11T22:25:08.325Z,2.47
2023-04-11T22:27:36.017Z,2.30
2023-04-11T22:30:05.111Z,2.00
2023-04-11T22:32:33.622Z,2.17
2023-04-11T22:35:01.437Z,1.47
2023-04-11T22:37:29.096Z,2.10
2023-04-11T22:39:56.687Z,1.60
2023-04-11T22:42:24.746Z,1.90
2023-04-11T22:44:52.440Z,1.97
2023-04-11T22:47:21.665Z,2.03
2023-04-11T22:49:50.592Z,1.87
2023-04-11T22:52:24.111Z,2.20
2023-04-11T22:54:52.136Z,2.50
2023-04-11T22:57:20.421Z,1.90
2023-04-11T22:59:50.682Z,2.17
2023-04-11T23:02:47.070Z,1.80
2023-04-11T23:05:14.815Z,2.27
2023-04-11T23:07:42.537Z,2.07
2023-04-11T23:10:13.703Z,1.93
2023-04-11T23:12:42.304Z,2.33
2023-04-11T23:15:11.217Z,2.03
2023-04-11T23:17:40.002Z,2.33
2023-04-11T23:20:11.034Z,2.03
2023-04-11T23:22:42.148Z,1.90
2023-04-11T23:25:11.656Z,2.40
2023-04-11T23:27:39.896Z,2.00
2023-04-11T23:30:11.497Z,2.10
2023-04-11T23:32:39.822Z,2.03
2023-04-11T23:35:08.621Z,2.40
2023-04-11T23:37:37.346Z,2.40
2023-04-11T23:40:09.946Z,2.40
2023-04-11T23:42:38.696Z,2.10
2023-04-11T23:45:08.306Z,2.33
2023-04-11T23:47:36.065Z,2.43
2023-04-11T23:50:04.510Z,2.30
2023-04-11T23:52:32.175Z,2.57
2023-04-11T23:54:59.767Z,2.67
2023-04-11T23:57:27.521Z,2.10
2023-04-11T23:59:55.091Z,2.20
